sensor_id;sensor_type;location;lat;lon;timestamp;pressure;altitude;pressure_sealevel;temperature;humidity
4858;BME280;58975;51.978;8.472;2023-02-15T00:01:33;101683.25;;;0.81;100.00
4858;BME280;58975;51.978;8.472;2023-02-15T00:06:30;101688.78;;;0.66;100.00
4858;BME280;58975;51.978;8.472;2023-02-15T00:11:27;101679.91;;;0.74;100.00
4858;BME280;58975;51.978;8.472;2023-02-15T00:16:36;101670.38;;;0.69;100.00
4858;BME280;58975;51.978;8.472;2023-02-15T00:21:34;101674.84;;;0.64;100.00
4858;BME280;58975;51.978;8.472;2023-02-15T00:26:32;101668.16;;;0.49;100.00
4858;BME280;58975;51.978;8.472;2023-02-15T00:31:30;101659.47;;;0.45;100.00
4858;BME280;58975;51.978;8.472;2023-02-15T00:36:27;101654.31;;;0.42;100.00
4858;BME280;58975;51.978;8.472;2023-02-15T00:41:24;101651.03;;;0.30;100.00
4858;BME280;58975;51.978;8.472;2023-02-15T00:46:21;101653.81;;;0.22;100.00
4858;BME280;58975;51.978;8.472;2023-02-15T00:51:18;101644.28;;;0.17;100.00
4858;BME280;58975;51.978;8.472;2023-02-15T00:56:14;101654.78;;;0.17;100.00
4858;BME280;58975;51.978;8.472;2023-02-15T01:01:14;101653.22;;;0.07;100.00
4858;BME280;58975;51.978;8.472;2023-02-15T01:06:13;101653.31;;;0.00;100.00
4858;BME280;58975;51.978;8.472;2023-02-15T01:11:12;101645.41;;;0.04;100.00
4858;BME280;58975;51.978;8.472;2023-02-15T01:16:09;101645.44;;;0.02;100.00
4858;BME280;58975;51.978;8.472;2023-02-15T01:21:10;101641.22;;;-0.07;100.00
4858;BME280;58975;51.978;8.472;2023-02-15T01:26:08;101633.41;;;-0.08;100.00
4858;BME280;58975;51.978;8.472;2023-02-15T01:31:10;101628.31;;;-0.17;100.00
4858;BME280;58975;51.978;8.472;2023-02-15T01:36:07;101616.56;;;-0.45;100.00
4858;BME280;58975;51.978;8.472;2023-02-15T01:41:04;101616.69;;;-0.52;100.00
4858;BME280;58975;51.978;8.472;2023-02-15T01:46:23;101614.38;;;-0.71;100.00
4858;BME280;58975;51.978;8.472;2023-02-15T01:51:23;101619.53;;;-0.68;100.00
4858;BME280;58975;51.978;8.472;2023-02-15T01:56:29;101622.91;;;-0.62;100.00
4858;BME280;58975;51.978;8.472;2023-02-15T02:01:26;101614.19;;;-0.61;100.00
4858;BME280;58975;51.978;8.472;2023-02-15T02:06:24;101608.03;;;-0.57;100.00
4858;BME280;58975;51.978;8.472;2023-02-15T02:11:22;101597.38;;;-0.44;100.00
4858;BME280;58975;51.978;8.472;2023-02-15T02:16:44;101591.47;;;-0.59;100.00
4858;BME280;58975;51.978;8.472;2023-02-15T02:27:35;101596.25;;;-0.85;100.00
4858;BME280;58975;51.978;8.472;2023-02-15T02:43:21;101583.94;;;-0.77;100.00
4858;BME280;58975;51.978;8.472;2023-02-15T02:48:25;101579.03;;;-0.98;100.00
4858;BME280;58975;51.978;8.472;2023-02-15T02:53:23;101566.69;;;-0.90;100.00
4858;BME280;58975;51.978;8.472;2023-02-15T02:58:28;101558.13;;;-1.01;100.00
4858;BME280;58975;51.978;8.472;2023-02-15T03:03:29;101552.84;;;-0.97;100.00
4858;BME280;58975;51.978;8.472;2023-02-15T03:08:33;101547.78;;;-1.07;100.00
4858;BME280;58975;51.978;8.472;2023-02-15T03:13:32;101551.22;;;-1.02;100.00
4858;BME280;58975;51.978;8.472;2023-02-15T03:18:34;101555.84;;;-1.22;100.00
4858;BME280;58975;51.978;8.472;2023-02-15T03:23:32;101553.09;;;-1.13;100.00
4858;BME280;58975;51.978;8.472;2023-02-15T03:28:38;101559.06;;;-1.05;100.00
4858;BME280;58975;51.978;8.472;2023-02-15T03:33:42;101545.00;;;-0.95;100.00
4858;BME280;58975;51.978;8.472;2023-02-15T03:38:53;101545.94;;;-0.99;100.00
4858;BME280;58975;51.978;8.472;2023-02-15T03:43:59;101546.38;;;-1.29;100.00
4858;BME280;58975;51.978;8.472;2023-02-15T03:49:17;101553.34;;;-1.33;100.00
4858;BME280;58975;51.978;8.472;2023-02-15T03:54:23;101534.94;;;-1.22;100.00
4858;BME280;58975;51.978;8.472;2023-02-15T03:59:38;101534.09;;;-1.24;100.00
4858;BME280;58975;51.978;8.472;2023-02-15T04:04:53;101530.66;;;-1.26;100.00
4858;BME280;58975;51.978;8.472;2023-02-15T04:09:50;101535.16;;;-1.37;100.00
4858;BME280;58975;51.978;8.472;2023-02-15T04:15:05;101530.19;;;-1.57;100.00
4858;BME280;58975;51.978;8.472;2023-02-15T04:20:34;101536.25;;;-1.57;100.00
4858;BME280;58975;51.978;8.472;2023-02-15T04:25:49;101530.09;;;-1.51;100.00
4858;BME280;58975;51.978;8.472;2023-02-15T04:30:46;101524.72;;;-1.37;100.00
4858;BME280;58975;51.978;8.472;2023-02-15T04:35:43;101521.41;;;-1.52;100.00
4858;BME280;58975;51.978;8.472;2023-02-15T04:40:41;101513.50;;;-1.46;100.00
4858;BME280;58975;51.978;8.472;2023-02-15T04:45:37;101509.97;;;-1.45;100.00
4858;BME280;58975;51.978;8.472;2023-02-15T04:50:33;101496.09;;;-1.47;100.00
4858;BME280;58975;51.978;8.472;2023-02-15T04:55:30;101503.03;;;-1.46;100.00
4858;BME280;58975;51.978;8.472;2023-02-15T05:00:26;101513.91;;;-1.79;100.00
4858;BME280;58975;51.978;8.472;2023-02-15T05:05:23;101509.53;;;-1.75;100.00
4858;BME280;58975;51.978;8.472;2023-02-15T05:10:20;101500.56;;;-1.56;100.00
4858;BME280;58975;51.978;8.472;2023-02-15T05:15:16;101517.31;;;-1.71;100.00
4858;BME280;58975;51.978;8.472;2023-02-15T05:20:13;101512.13;;;-1.74;100.00
4858;BME280;58975;51.978;8.472;2023-02-15T05:25:10;101499.88;;;-1.69;100.00
4858;BME280;58975;51.978;8.472;2023-02-15T05:30:24;101497.44;;;-1.81;100.00
4858;BME280;58975;51.978;8.472;2023-02-15T05:35:21;101502.75;;;-1.92;100.00
4858;BME280;58975;51.978;8.472;2023-02-15T05:40:17;101501.16;;;-2.03;100.00
4858;BME280;58975;51.978;8.472;2023-02-15T05:45:14;101503.66;;;-1.94;100.00
4858;BME280;58975;51.978;8.472;2023-02-15T05:50:11;101501.97;;;-1.97;100.00
4858;BME280;58975;51.978;8.472;2023-02-15T05:55:08;101500.31;;;-2.05;100.00
4858;BME280;58975;51.978;8.472;2023-02-15T06:00:05;101486.41;;;-2.07;100.00
4858;BME280;58975;51.978;8.472;2023-02-15T06:05:03;101500.50;;;-2.20;100.00
4858;BME280;58975;51.978;8.472;2023-02-15T06:10:00;101496.16;;;-2.20;100.00
4858;BME280;58975;51.978;8.472;2023-02-15T06:14:57;101495.06;;;-2.02;100.00
4858;BME280;58975;51.978;8.472;2023-02-15T06:19:53;101495.00;;;-1.99;100.00
4858;BME280;58975;51.978;8.472;2023-02-15T06:24:49;101499.53;;;-2.13;100.00
4858;BME280;58975;51.978;8.472;2023-02-15T06:29:46;101495.88;;;-1.99;100.00
4858;BME280;58975;51.978;8.472;2023-02-15T06:34:42;101507.25;;;-2.01;100.00
4858;BME280;58975;51.978;8.472;2023-02-15T06:39:38;101505.41;;;-1.93;100.00
4858;BME280;58975;51.978;8.472;2023-02-15T06:44:35;101501.81;;;-1.86;100.00
4858;BME280;58975;51.978;8.472;2023-02-15T06:49:31;101496.75;;;-1.98;100.00
4858;BME280;58975;51.978;8.472;2023-02-15T06:54:28;101492.59;;;-2.14;100.00
4858;BME280;58975;51.978;8.472;2023-02-15T06:59:24;101496.78;;;-2.01;100.00
4858;BME280;58975;51.978;8.472;2023-02-15T07:04:21;101497.44;;;-1.84;100.00
4858;BME280;58975;51.978;8.472;2023-02-15T07:09:17;101503.72;;;-1.97;100.00
4858;BME280;58975;51.978;8.472;2023-02-15T07:14:13;101505.28;;;-1.84;100.00
4858;BME280;58975;51.978;8.472;2023-02-15T07:19:10;101495.81;;;-1.27;100.00
4858;BME280;58975;51.978;8.472;2023-02-15T07:24:06;101500.97;;;-1.22;100.00
4858;BME280;58975;51.978;8.472;2023-02-15T07:29:03;101508.63;;;-1.12;100.00
4858;BME280;58975;51.978;8.472;2023-02-15T07:33:59;101499.75;;;-1.02;100.00
4858;BME280;58975;51.978;8.472;2023-02-15T07:38:55;101511.09;;;-0.51;100.00
4858;BME280;58975;51.978;8.472;2023-02-15T07:43:52;101504.56;;;-0.25;100.00
4858;BME280;58975;51.978;8.472;2023-02-15T07:48:48;101506.31;;;-0.26;100.00
4858;BME280;58975;51.978;8.472;2023-02-15T07:53:44;101514.44;;;0.05;100.00
4858;BME280;58975;51.978;8.472;2023-02-15T07:58:41;101507.28;;;0.13;100.00
4858;BME280;58975;51.978;8.472;2023-02-15T08:03:47;101495.88;;;0.56;100.00
4858;BME280;58975;51.978;8.472;2023-02-15T08:08:43;101489.72;;;0.95;100.00
4858;BME280;58975;51.978;8.472;2023-02-15T08:13:42;101476.00;;;1.21;100.00
4858;BME280;58975;51.978;8.472;2023-02-15T08:18:51;101456.47;;;1.32;100.00
4858;BME280;58975;51.978;8.472;2023-02-15T08:23:47;101440.78;;;1.62;100.00
4858;BME280;58975;51.978;8.472;2023-02-15T08:28:44;101428.63;;;1.90;100.00
4858;BME280;58975;51.978;8.472;2023-02-15T08:33:43;101414.56;;;2.20;100.00
4858;BME280;58975;51.978;8.472;2023-02-15T08:38:41;101410.47;;;2.39;100.00
4858;BME280;58975;51.978;8.472;2023-02-15T08:43:38;101400.00;;;2.66;100.00
4858;BME280;58975;51.978;8.472;2023-02-15T08:48:34;101402.25;;;2.78;100.00
4858;BME280;58975;51.978;8.472;2023-02-15T08:53:31;101401.53;;;2.99;100.00
4858;BME280;58975;51.978;8.472;2023-02-15T08:58:28;101401.88;;;3.15;100.00
4858;BME280;58975;51.978;8.472;2023-02-15T09:03:26;101396.31;;;3.24;100.00
4858;BME280;58975;51.978;8.472;2023-02-15T09:08:24;101396.06;;;3.55;100.00
4858;BME280;58975;51.978;8.472;2023-02-15T09:13:20;101392.44;;;3.82;100.00
4858;BME280;58975;51.978;8.472;2023-02-15T09:18:17;101390.03;;;4.22;100.00
4858;BME280;58975;51.978;8.472;2023-02-15T09:23:13;101383.53;;;4.53;100.00
4858;BME280;58975;51.978;8.472;2023-02-15T09:28:22;101383.06;;;4.65;100.00
4858;BME280;58975;51.978;8.472;2023-02-15T09:33:18;101382.59;;;4.75;100.00
4858;BME280;58975;51.978;8.472;2023-02-15T09:38:15;101381.13;;;5.10;100.00
4858;BME280;58975;51.978;8.472;2023-02-15T09:43:20;101384.31;;;5.18;100.00
4858;BME280;58975;51.978;8.472;2023-02-15T09:48:40;101380.09;;;5.35;100.00
4858;BME280;58975;51.978;8.472;2023-02-15T10:09:12;101380.31;;;6.45;100.00
4858;BME280;58975;51.978;8.472;2023-02-15T10:14:37;101376.38;;;6.71;100.00
4858;BME280;58975;51.978;8.472;2023-02-15T10:30:02;101367.41;;;7.27;100.00
4858;BME280;58975;51.978;8.472;2023-02-15T10:40:24;101370.72;;;7.80;100.00
4858;BME280;58975;51.978;8.472;2023-02-15T10:50:34;101353.03;;;7.96;100.00
4858;BME280;58975;51.978;8.472;2023-02-15T11:00:47;101349.19;;;8.35;100.00
4858;BME280;58975;51.978;8.472;2023-02-15T11:06:03;101347.00;;;8.57;100.00
4858;BME280;58975;51.978;8.472;2023-02-15T11:11:06;101342.63;;;8.72;100.00
4858;BME280;58975;51.978;8.472;2023-02-15T11:16:16;101348.47;;;8.47;100.00
4858;BME280;58975;51.978;8.472;2023-02-15T11:21:21;101342.75;;;8.39;100.00
4858;BME280;58975;51.978;8.472;2023-02-15T11:26:33;101337.78;;;8.78;100.00
4858;BME280;58975;51.978;8.472;2023-02-15T11:31:41;101335.72;;;8.83;100.00
4858;BME280;58975;51.978;8.472;2023-02-15T11:36:41;101339.75;;;8.45;100.00
4858;BME280;58975;51.978;8.472;2023-02-15T11:41:49;101327.34;;;8.45;100.00
4858;BME280;58975;51.978;8.472;2023-02-15T11:46:48;101322.44;;;8.83;100.00
4858;BME280;58975;51.978;8.472;2023-02-15T11:51:45;101328.94;;;8.93;100.00
4858;BME280;58975;51.978;8.472;2023-02-15T11:56:41;101322.00;;;8.91;100.00
4858;BME280;58975;51.978;8.472;2023-02-15T12:01:41;101302.25;;;9.39;100.00
4858;BME280;58975;51.978;8.472;2023-02-15T12:06:51;101310.22;;;9.95;100.00
4858;BME280;58975;51.978;8.472;2023-02-15T12:11:49;101297.53;;;10.27;100.00
4858;BME280;58975;51.978;8.472;2023-02-15T12:16:48;101290.06;;;10.47;100.00
4858;BME280;58975;51.978;8.472;2023-02-15T12:21:49;101297.59;;;10.40;100.00
4858;BME280;58975;51.978;8.472;2023-02-15T12:27:17;101282.22;;;10.70;100.00
4858;BME280;58975;51.978;8.472;2023-02-15T12:32:20;101271.72;;;10.94;98.57
4858;BME280;58975;51.978;8.472;2023-02-15T12:37:29;101264.59;;;11.07;93.55
4858;BME280;58975;51.978;8.472;2023-02-15T12:42:44;101262.59;;;11.36;94.51
4858;BME280;58975;51.978;8.472;2023-02-15T12:47:41;101250.84;;;11.01;92.38
4858;BME280;58975;51.978;8.472;2023-02-15T12:52:37;101245.41;;;11.15;95.75
4858;BME280;58975;51.978;8.472;2023-02-15T12:57:35;101244.25;;;11.19;91.20
4858;BME280;58975;51.978;8.472;2023-02-15T13:02:36;101233.03;;;11.39;90.09
4858;BME280;58975;51.978;8.472;2023-02-15T13:07:37;101223.94;;;11.54;89.34
4858;BME280;58975;51.978;8.472;2023-02-15T13:12:34;101233.34;;;11.34;90.23
4858;BME280;58975;51.978;8.472;2023-02-15T13:17:32;101228.09;;;11.46;95.42
4858;BME280;58975;51.978;8.472;2023-02-15T13:22:38;101233.22;;;11.49;91.06
4858;BME280;58975;51.978;8.472;2023-02-15T13:27:39;101223.09;;;11.41;90.58
4858;BME280;58975;51.978;8.472;2023-02-15T13:32:38;101225.88;;;11.52;89.03
4858;BME280;58975;51.978;8.472;2023-02-15T13:59:17;101184.75;;;11.80;85.32
4858;BME280;58975;51.978;8.472;2023-02-15T14:31:34;101163.66;;;12.12;82.43
4858;BME280;58975;51.978;8.472;2023-02-15T14:36:31;101159.31;;;12.11;82.89
4858;BME280;58975;51.978;8.472;2023-02-15T14:41:37;101165.31;;;12.02;84.06
4858;BME280;58975;51.978;8.472;2023-02-15T14:47:00;101163.78;;;12.10;80.38
4858;BME280;58975;51.978;8.472;2023-02-15T15:02:03;101147.81;;;11.98;81.38
4858;BME280;58975;51.978;8.472;2023-02-15T15:22:28;101138.25;;;11.95;78.60
4858;BME280;58975;51.978;8.472;2023-02-15T15:32:35;101132.13;;;11.69;80.89
4858;BME280;58975;51.978;8.472;2023-02-15T15:37:51;101129.09;;;11.50;82.25
4858;BME280;58975;51.978;8.472;2023-02-15T15:43:16;101130.22;;;11.35;83.03
4858;BME280;58975;51.978;8.472;2023-02-15T15:48:36;101132.09;;;11.09;87.02
4858;BME280;58975;51.978;8.472;2023-02-15T15:53:39;101132.41;;;10.79;91.35
4858;BME280;58975;51.978;8.472;2023-02-15T15:58:53;101133.38;;;10.66;93.68
4858;BME280;58975;51.978;8.472;2023-02-15T16:03:52;101125.59;;;10.50;94.41
4858;BME280;58975;51.978;8.472;2023-02-15T16:08:49;101124.47;;;10.15;100.00
4858;BME280;58975;51.978;8.472;2023-02-15T16:13:47;101125.06;;;10.06;100.00
4858;BME280;58975;51.978;8.472;2023-02-15T16:18:43;101123.50;;;9.62;100.00
4858;BME280;58975;51.978;8.472;2023-02-15T16:28:53;101116.06;;;8.85;100.00
4858;BME280;58975;51.978;8.472;2023-02-15T16:33:53;101126.84;;;8.54;100.00
4858;BME280;58975;51.978;8.472;2023-02-15T16:43:48;101115.56;;;7.91;100.00
4858;BME280;58975;51.978;8.472;2023-02-15T16:48:46;101109.09;;;7.65;100.00
4858;BME280;58975;51.978;8.472;2023-02-15T16:53:46;101105.97;;;7.43;100.00
4858;BME280;58975;51.978;8.472;2023-02-15T16:58:43;101103.50;;;7.08;100.00
4858;BME280;58975;51.978;8.472;2023-02-15T17:03:41;101111.97;;;6.82;100.00
4858;BME280;58975;51.978;8.472;2023-02-15T17:08:44;101118.88;;;6.52;100.00
4858;BME280;58975;51.978;8.472;2023-02-15T17:19:09;101129.66;;;6.49;100.00
4858;BME280;58975;51.978;8.472;2023-02-15T17:24:16;101127.56;;;6.38;100.00
4858;BME280;58975;51.978;8.472;2023-02-15T17:29:37;101136.19;;;6.25;100.00
4858;BME280;58975;51.978;8.472;2023-02-15T17:35:17;101139.94;;;6.03;100.00
4858;BME280;58975;51.978;8.472;2023-02-15T17:40:25;101147.69;;;5.89;100.00
4858;BME280;58975;51.978;8.472;2023-02-15T17:45:25;101136.41;;;5.67;100.00
4858;BME280;58975;51.978;8.472;2023-02-15T17:50:24;101129.44;;;5.47;100.00
4858;BME280;58975;51.978;8.472;2023-02-15T17:55:22;101129.66;;;5.43;100.00
4858;BME280;58975;51.978;8.472;2023-02-15T18:00:36;101141.50;;;5.53;100.00
4858;BME280;58975;51.978;8.472;2023-02-15T18:05:52;101133.78;;;5.67;100.00
4858;BME280;58975;51.978;8.472;2023-02-15T18:11:09;101132.97;;;5.65;100.00
4858;BME280;58975;51.978;8.472;2023-02-15T18:16:25;101123.22;;;5.67;100.00
4858;BME280;58975;51.978;8.472;2023-02-15T18:21:23;101126.78;;;5.66;100.00
4858;BME280;58975;51.978;8.472;2023-02-15T18:26:22;101119.31;;;5.74;100.00
4858;BME280;58975;51.978;8.472;2023-02-15T18:31:19;101122.56;;;5.62;100.00
4858;BME280;58975;51.978;8.472;2023-02-15T18:36:25;101121.59;;;5.46;100.00
4858;BME280;58975;51.978;8.472;2023-02-15T18:41:23;101129.81;;;5.40;100.00
4858;BME280;58975;51.978;8.472;2023-02-15T18:46:20;101124.97;;;5.31;100.00
4858;BME280;58975;51.978;8.472;2023-02-15T18:51:19;101126.81;;;5.10;100.00
4858;BME280;58975;51.978;8.472;2023-02-15T18:56:18;101127.97;;;5.04;100.00
4858;BME280;58975;51.978;8.472;2023-02-15T19:01:18;101131.38;;;5.06;100.00
4858;BME280;58975;51.978;8.472;2023-02-15T19:06:17;101125.69;;;4.97;100.00
4858;BME280;58975;51.978;8.472;2023-02-15T19:11:19;101116.19;;;4.93;100.00
4858;BME280;58975;51.978;8.472;2023-02-15T19:16:27;101118.25;;;4.86;100.00
4858;BME280;58975;51.978;8.472;2023-02-15T19:21:26;101123.97;;;4.77;100.00
4858;BME280;58975;51.978;8.472;2023-02-15T19:26:23;101124.09;;;4.74;100.00
4858;BME280;58975;51.978;8.472;2023-02-15T19:31:34;101130.22;;;4.74;100.00
4858;BME280;58975;51.978;8.472;2023-02-15T19:36:31;101134.16;;;4.85;100.00
4858;BME280;58975;51.978;8.472;2023-02-15T19:41:31;101147.00;;;4.73;100.00
4858;BME280;58975;51.978;8.472;2023-02-15T19:46:29;101138.91;;;4.58;100.00
4858;BME280;58975;51.978;8.472;2023-02-15T19:51:25;101135.53;;;4.54;100.00
4858;BME280;58975;51.978;8.472;2023-02-15T19:56:23;101128.75;;;4.49;100.00
4858;BME280;58975;51.978;8.472;2023-02-15T20:01:19;101152.84;;;4.60;100.00
4858;BME280;58975;51.978;8.472;2023-02-15T20:06:18;101153.81;;;4.39;100.00
4858;BME280;58975;51.978;8.472;2023-02-15T20:11:14;101165.75;;;4.27;100.00
4858;BME280;58975;51.978;8.472;2023-02-15T20:16:11;101165.66;;;4.28;100.00
4858;BME280;58975;51.978;8.472;2023-02-15T20:21:10;101164.47;;;4.15;100.00
4858;BME280;58975;51.978;8.472;2023-02-15T20:26:15;101172.38;;;4.15;100.00
4858;BME280;58975;51.978;8.472;2023-02-15T20:31:14;101166.53;;;3.87;100.00
4858;BME280;58975;51.978;8.472;2023-02-15T20:36:13;101166.28;;;3.71;100.00
4858;BME280;58975;51.978;8.472;2023-02-15T20:41:15;101165.63;;;3.66;100.00
4858;BME280;58975;51.978;8.472;2023-02-15T20:46:31;101168.00;;;3.51;100.00
4858;BME280;58975;51.978;8.472;2023-02-15T20:51:27;101156.59;;;3.28;100.00
4858;BME280;58975;51.978;8.472;2023-02-15T20:56:24;101152.28;;;3.26;100.00
4858;BME280;58975;51.978;8.472;2023-02-15T21:01:20;101155.22;;;3.18;100.00
4858;BME280;58975;51.978;8.472;2023-02-15T21:06:17;101151.09;;;3.11;100.00
4858;BME280;58975;51.978;8.472;2023-02-15T21:11:22;101160.75;;;3.11;100.00
4858;BME280;58975;51.978;8.472;2023-02-15T21:16:19;101168.00;;;3.06;100.00
4858;BME280;58975;51.978;8.472;2023-02-15T21:21:20;101158.72;;;2.96;100.00
4858;BME280;58975;51.978;8.472;2023-02-15T21:26:21;101156.38;;;2.88;100.00
4858;BME280;58975;51.978;8.472;2023-02-15T21:31:21;101159.16;;;2.83;100.00
4858;BME280;58975;51.978;8.472;2023-02-15T21:36:21;101155.34;;;2.92;100.00
4858;BME280;58975;51.978;8.472;2023-02-15T21:41:20;101171.75;;;2.99;100.00
4858;BME280;58975;51.978;8.472;2023-02-15T21:46:36;101174.53;;;2.94;100.00
4858;BME280;58975;51.978;8.472;2023-02-15T21:51:51;101172.00;;;2.93;100.00
4858;BME280;58975;51.978;8.472;2023-02-15T21:57:11;101174.00;;;2.86;100.00
4858;BME280;58975;51.978;8.472;2023-02-15T22:02:26;101177.63;;;2.59;100.00
4858;BME280;58975;51.978;8.472;2023-02-15T22:07:23;101171.06;;;2.46;100.00
4858;BME280;58975;51.978;8.472;2023-02-15T22:12:20;101168.63;;;2.39;100.00
4858;BME280;58975;51.978;8.472;2023-02-15T22:17:19;101169.84;;;2.31;100.00
4858;BME280;58975;51.978;8.472;2023-02-15T22:22:16;101179.19;;;2.13;100.00
4858;BME280;58975;51.978;8.472;2023-02-15T22:27:19;101167.97;;;2.08;100.00
4858;BME280;58975;51.978;8.472;2023-02-15T22:32:21;101173.44;;;2.02;100.00
4858;BME280;58975;51.978;8.472;2023-02-15T22:37:18;101171.06;;;1.95;100.00
4858;BME280;58975;51.978;8.472;2023-02-15T22:42:26;101179.19;;;1.87;100.00
4858;BME280;58975;51.978;8.472;2023-02-15T22:47:26;101171.50;;;1.81;100.00
4858;BME280;58975;51.978;8.472;2023-02-15T22:52:23;101175.44;;;1.94;100.00
4858;BME280;58975;51.978;8.472;2023-02-15T22:57:26;101173.56;;;1.98;100.00
4858;BME280;58975;51.978;8.472;2023-02-15T23:02:25;101174.03;;;1.84;100.00
4858;BME280;58975;51.978;8.472;2023-02-15T23:07:22;101187.94;;;1.87;100.00
4858;BME280;58975;51.978;8.472;2023-02-15T23:12:23;101182.47;;;1.94;100.00
4858;BME280;58975;51.978;8.472;2023-02-15T23:17:20;101171.66;;;1.76;100.00
4858;BME280;58975;51.978;8.472;2023-02-15T23:22:16;101182.63;;;1.61;100.00
4858;BME280;58975;51.978;8.472;2023-02-15T23:27:17;101176.56;;;1.61;100.00
4858;BME280;58975;51.978;8.472;2023-02-15T23:32:32;101183.31;;;1.68;100.00
4858;BME280;58975;51.978;8.472;2023-02-15T23:37:28;101178.34;;;1.59;100.00
4858;BME280;58975;51.978;8.472;2023-02-15T23:42:28;101183.97;;;1.47;100.00
4858;BME280;58975;51.978;8.472;2023-02-15T23:47:31;101182.00;;;1.53;100.00
4858;BME280;58975;51.978;8.472;2023-02-15T23:52:47;101188.34;;;1.46;100.00
4858;BME280;58975;51.978;8.472;2023-02-15T23:57:45;101191.78;;;1.20;100.00
